sensor_id;sensor_type;location;lat;lon;timestamp;pressure;altitude;pressure_sealevel;temperature;humidity
20987;BME280;10652;50.306;8.570;2023-06-14T00:03:54;97737.81;;;12.11;65.67
20987;BME280;10652;50.306;8.570;2023-06-14T00:07:58;97743.53;;;12.03;66.79
20987;BME280;10652;50.306;8.570;2023-06-14T00:12:02;97744.88;;;12.10;66.46
20987;BME280;10652;50.306;8.570;2023-06-14T00:16:05;97744.69;;;12.13;65.82
20987;BME280;10652;50.306;8.570;2023-06-14T00:20:08;97750.66;;;12.01;65.96
20987;BME280;10652;50.306;8.570;2023-06-14T00:24:11;97741.34;;;11.96;66.21
20987;BME280;10652;50.306;8.570;2023-06-14T00:28:14;97736.38;;;12.05;66.53
20987;BME280;10652;50.306;8.570;2023-06-14T00:32:18;97739.41;;;12.13;65.81
20987;BME280;10652;50.306;8.570;2023-06-14T00:36:21;97738.84;;;12.08;66.03
20987;BME280;10652;50.306;8.570;2023-06-14T00:40:23;97733.16;;;12.00;65.93
20987;BME280;10652;50.306;8.570;2023-06-14T00:44:25;97734.16;;;11.84;66.26
20987;BME280;10652;50.306;8.570;2023-06-14T00:48:28;97739.25;;;11.71;66.40
20987;BME280;10652;50.306;8.570;2023-06-14T00:52:30;97741.44;;;11.63;67.33
20987;BME280;10652;50.306;8.570;2023-06-14T00:56:37;97739.59;;;11.65;67.61
20987;BME280;10652;50.306;8.570;2023-06-14T01:00:40;97736.28;;;11.61;67.80
20987;BME280;10652;50.306;8.570;2023-06-14T01:04:43;97747.81;;;11.59;67.79
20987;BME280;10652;50.306;8.570;2023-06-14T01:09:16;97747.22;;;11.54;68.13
20987;BME280;10652;50.306;8.570;2023-06-14T01:17:25;97745.34;;;11.40;68.21
20987;BME280;10652;50.306;8.570;2023-06-14T01:21:29;97736.38;;;11.28;68.93
20987;BME280;10652;50.306;8.570;2023-06-14T01:25:31;97738.09;;;11.29;69.07
20987;BME280;10652;50.306;8.570;2023-06-14T01:29:33;97740.72;;;11.29;69.41
20987;BME280;10652;50.306;8.570;2023-06-14T01:33:38;97745.78;;;11.32;69.65
20987;BME280;10652;50.306;8.570;2023-06-14T01:37:41;97745.53;;;11.37;69.95
20987;BME280;10652;50.306;8.570;2023-06-14T01:41:44;97737.31;;;11.43;69.70
20987;BME280;10652;50.306;8.570;2023-06-14T01:45:48;97745.72;;;11.50;69.37
20987;BME280;10652;50.306;8.570;2023-06-14T01:49:51;97739.34;;;11.54;70.03
20987;BME280;10652;50.306;8.570;2023-06-14T01:53:53;97733.75;;;11.60;68.96
20987;BME280;10652;50.306;8.570;2023-06-14T01:57:55;97741.66;;;11.44;67.68
20987;BME280;10652;50.306;8.570;2023-06-14T02:01:57;97729.91;;;11.18;68.25
20987;BME280;10652;50.306;8.570;2023-06-14T02:05:59;97732.41;;;11.04;68.78
20987;BME280;10652;50.306;8.570;2023-06-14T02:10:03;97734.09;;;10.89;69.70
20987;BME280;10652;50.306;8.570;2023-06-14T02:14:05;97728.91;;;10.88;70.34
20987;BME280;10652;50.306;8.570;2023-06-14T02:18:09;97739.59;;;10.85;70.27
20987;BME280;10652;50.306;8.570;2023-06-14T02:22:11;97743.41;;;10.79;70.74
20987;BME280;10652;50.306;8.570;2023-06-14T02:26:14;97732.97;;;10.78;70.91
20987;BME280;10652;50.306;8.570;2023-06-14T02:30:16;97750.91;;;10.70;70.30
20987;BME280;10652;50.306;8.570;2023-06-14T02:34:18;97745.69;;;10.53;70.71
20987;BME280;10652;50.306;8.570;2023-06-14T02:38:22;97758.81;;;10.53;72.53
20987;BME280;10652;50.306;8.570;2023-06-14T02:42:24;97755.56;;;10.47;72.53
20987;BME280;10652;50.306;8.570;2023-06-14T02:46:26;97766.78;;;10.34;72.50
20987;BME280;10652;50.306;8.570;2023-06-14T02:50:28;97762.91;;;10.24;73.63
20987;BME280;10652;50.306;8.570;2023-06-14T02:54:32;97766.47;;;10.23;74.58
20987;BME280;10652;50.306;8.570;2023-06-14T02:58:36;97769.94;;;10.23;73.60
20987;BME280;10652;50.306;8.570;2023-06-14T03:02:38;97776.25;;;10.19;72.93
20987;BME280;10652;50.306;8.570;2023-06-14T03:06:41;97773.25;;;10.10;73.38
20987;BME280;10652;50.306;8.570;2023-06-14T03:10:48;97780.72;;;10.00;73.62
20987;BME280;10652;50.306;8.570;2023-06-14T03:14:50;97782.59;;;9.98;75.08
20987;BME280;10652;50.306;8.570;2023-06-14T03:18:56;97783.69;;;10.11;74.64
20987;BME280;10652;50.306;8.570;2023-06-14T03:23:02;97788.00;;;10.12;73.92
20987;BME280;10652;50.306;8.570;2023-06-14T03:27:05;97797.25;;;10.19;73.64
20987;BME280;10652;50.306;8.570;2023-06-14T03:31:07;97797.25;;;10.19;73.22
20987;BME280;10652;50.306;8.570;2023-06-14T03:35:10;97796.56;;;10.16;73.57
20987;BME280;10652;50.306;8.570;2023-06-14T03:39:19;97809.69;;;10.16;74.03
20987;BME280;10652;50.306;8.570;2023-06-14T03:43:22;97814.72;;;10.20;73.65
20987;BME280;10652;50.306;8.570;2023-06-14T03:47:24;97814.28;;;10.29;73.56
20987;BME280;10652;50.306;8.570;2023-06-14T03:51:27;97828.03;;;10.52;73.03
20987;BME280;10652;50.306;8.570;2023-06-14T03:55:30;97822.09;;;11.79;71.51
20987;BME280;10652;50.306;8.570;2023-06-14T03:59:39;97818.63;;;13.42;65.67
20987;BME280;10652;50.306;8.570;2023-06-14T04:03:41;97828.56;;;14.74;59.60
20987;BME280;10652;50.306;8.570;2023-06-14T04:07:44;97817.22;;;15.73;54.98
20987;BME280;10652;50.306;8.570;2023-06-14T04:11:54;97828.91;;;16.90;52.58
20987;BME280;10652;50.306;8.570;2023-06-14T04:15:58;97815.91;;;18.09;49.28
20987;BME280;10652;50.306;8.570;2023-06-14T04:20:07;97813.22;;;19.16;46.83
20987;BME280;10652;50.306;8.570;2023-06-14T04:24:11;97815.19;;;20.24;45.13
20987;BME280;10652;50.306;8.570;2023-06-14T04:28:17;97833.31;;;21.36;42.48
20987;BME280;10652;50.306;8.570;2023-06-14T04:32:21;97828.75;;;22.29;40.76
20987;BME280;10652;50.306;8.570;2023-06-14T04:36:23;97831.22;;;23.11;39.58
20987;BME280;10652;50.306;8.570;2023-06-14T04:40:26;97825.06;;;24.12;37.43
20987;BME280;10652;50.306;8.570;2023-06-14T04:44:28;97828.66;;;25.04;36.17
20987;BME280;10652;50.306;8.570;2023-06-14T04:48:38;97833.97;;;25.84;34.97
20987;BME280;10652;50.306;8.570;2023-06-14T04:52:44;97833.72;;;26.72;33.61
20987;BME280;10652;50.306;8.570;2023-06-14T04:56:46;97827.81;;;27.37;30.48
20987;BME280;10652;50.306;8.570;2023-06-14T05:00:48;97837.81;;;27.80;31.39
20987;BME280;10652;50.306;8.570;2023-06-14T05:04:51;97836.63;;;28.27;30.66
20987;BME280;10652;50.306;8.570;2023-06-14T05:08:54;97836.28;;;28.00;30.21
20987;BME280;10652;50.306;8.570;2023-06-14T05:12:56;97839.69;;;27.28;31.29
20987;BME280;10652;50.306;8.570;2023-06-14T05:16:59;97841.41;;;26.83;31.01
20987;BME280;10652;50.306;8.570;2023-06-14T05:21:01;97835.56;;;26.41;31.85
20987;BME280;10652;50.306;8.570;2023-06-14T05:25:03;97836.41;;;26.02;32.05
20987;BME280;10652;50.306;8.570;2023-06-14T05:29:06;97844.66;;;26.40;31.67
20987;BME280;10652;50.306;8.570;2023-06-14T05:33:08;97838.09;;;25.95;31.47
20987;BME280;10652;50.306;8.570;2023-06-14T05:37:11;97850.66;;;25.48;32.21
20987;BME280;10652;50.306;8.570;2023-06-14T05:41:13;97853.25;;;24.50;33.67
20987;BME280;10652;50.306;8.570;2023-06-14T05:45:15;97850.66;;;25.48;32.83
20987;BME280;10652;50.306;8.570;2023-06-14T05:49:18;97852.47;;;26.26;31.61
20987;BME280;10652;50.306;8.570;2023-06-14T05:53:20;97857.09;;;26.80;31.17
20987;BME280;10652;50.306;8.570;2023-06-14T05:57:22;97863.50;;;27.47;30.86
20987;BME280;10652;50.306;8.570;2023-06-14T06:01:24;97854.28;;;26.73;30.74
20987;BME280;10652;50.306;8.570;2023-06-14T06:05:27;97859.50;;;26.97;30.89
20987;BME280;10652;50.306;8.570;2023-06-14T06:09:29;97866.28;;;26.93;30.85
20987;BME280;10652;50.306;8.570;2023-06-14T06:13:31;97860.06;;;26.85;30.86
20987;BME280;10652;50.306;8.570;2023-06-14T06:17:34;97870.56;;;27.25;30.82
20987;BME280;10652;50.306;8.570;2023-06-14T06:21:51;97869.91;;;27.98;29.74
20987;BME280;10652;50.306;8.570;2023-06-14T06:25:53;97871.81;;;27.75;30.07
20987;BME280;10652;50.306;8.570;2023-06-14T06:29:55;97877.91;;;27.91;30.02
20987;BME280;10652;50.306;8.570;2023-06-14T06:33:57;97879.69;;;28.14;29.83
20987;BME280;10652;50.306;8.570;2023-06-14T06:38:00;97869.84;;;29.07;28.71
20987;BME280;10652;50.306;8.570;2023-06-14T06:42:03;97885.25;;;28.56;28.85
20987;BME280;10652;50.306;8.570;2023-06-14T06:46:10;97883.38;;;28.42;29.35
20987;BME280;10652;50.306;8.570;2023-06-14T06:50:13;97897.75;;;28.28;29.54
20987;BME280;10652;50.306;8.570;2023-06-14T06:54:15;97883.22;;;27.99;30.17
20987;BME280;10652;50.306;8.570;2023-06-14T06:58:17;97886.03;;;28.21;29.11
20987;BME280;10652;50.306;8.570;2023-06-14T07:02:19;97887.03;;;28.20;29.44
20987;BME280;10652;50.306;8.570;2023-06-14T07:06:22;97898.16;;;27.73;29.79
20987;BME280;10652;50.306;8.570;2023-06-14T07:10:24;97899.03;;;27.28;30.84
20987;BME280;10652;50.306;8.570;2023-06-14T07:14:26;97903.25;;;27.30;31.37
20987;BME280;10652;50.306;8.570;2023-06-14T07:18:28;97911.94;;;26.25;31.57
20987;BME280;10652;50.306;8.570;2023-06-14T07:22:30;97912.53;;;21.93;37.49
20987;BME280;10652;50.306;8.570;2023-06-14T07:26:32;97927.22;;;19.43;42.24
20987;BME280;10652;50.306;8.570;2023-06-14T07:30:35;97918.50;;;18.23;45.21
20987;BME280;10652;50.306;8.570;2023-06-14T07:34:37;97924.69;;;17.79;46.40
20987;BME280;10652;50.306;8.570;2023-06-14T07:38:39;97921.88;;;17.58;48.05
20987;BME280;10652;50.306;8.570;2023-06-14T07:42:42;97925.66;;;17.32;47.97
20987;BME280;10652;50.306;8.570;2023-06-14T07:46:44;97916.22;;;17.17;49.42
20987;BME280;10652;50.306;8.570;2023-06-14T07:50:48;97922.16;;;17.31;49.02
20987;BME280;10652;50.306;8.570;2023-06-14T07:54:50;97916.97;;;17.30;49.13
20987;BME280;10652;50.306;8.570;2023-06-14T07:58:52;97923.00;;;17.21;48.29
20987;BME280;10652;50.306;8.570;2023-06-14T08:02:54;97920.13;;;17.00;48.75
20987;BME280;10652;50.306;8.570;2023-06-14T08:07:02;97935.75;;;17.16;48.13
20987;BME280;10652;50.306;8.570;2023-06-14T08:11:08;97928.16;;;17.11;47.60
20987;BME280;10652;50.306;8.570;2023-06-14T08:15:10;97931.59;;;17.00;47.27
20987;BME280;10652;50.306;8.570;2023-06-14T08:19:15;97937.06;;;17.10;47.67
20987;BME280;10652;50.306;8.570;2023-06-14T08:23:18;97937.31;;;17.18;48.53
20987;BME280;10652;50.306;8.570;2023-06-14T08:27:22;97942.63;;;17.18;48.36
20987;BME280;10652;50.306;8.570;2023-06-14T08:31:24;97929.63;;;17.26;47.94
20987;BME280;10652;50.306;8.570;2023-06-14T08:35:27;97932.91;;;17.30;47.98
20987;BME280;10652;50.306;8.570;2023-06-14T08:39:29;97927.00;;;17.37;46.97
20987;BME280;10652;50.306;8.570;2023-06-14T08:43:32;97930.91;;;17.44;48.27
20987;BME280;10652;50.306;8.570;2023-06-14T08:47:34;97923.97;;;17.66;48.27
20987;BME280;10652;50.306;8.570;2023-06-14T08:51:43;97922.66;;;17.71;46.51
20987;BME280;10652;50.306;8.570;2023-06-14T08:55:45;97929.13;;;17.67;45.99
20987;BME280;10652;50.306;8.570;2023-06-14T08:59:49;97923.81;;;17.56;46.37
20987;BME280;10652;50.306;8.570;2023-06-14T09:03:55;97933.59;;;17.56;45.53
20987;BME280;10652;50.306;8.570;2023-06-14T09:07:59;97935.78;;;17.73;45.47
20987;BME280;10652;50.306;8.570;2023-06-14T09:12:10;97930.72;;;17.70;45.91
20987;BME280;10652;50.306;8.570;2023-06-14T09:16:14;97929.41;;;17.75;45.01
20987;BME280;10652;50.306;8.570;2023-06-14T09:20:16;97943.78;;;17.84;45.36
20987;BME280;10652;50.306;8.570;2023-06-14T09:24:24;97943.78;;;17.84;43.58
20987;BME280;10652;50.306;8.570;2023-06-14T09:28:27;97941.84;;;17.75;43.96
20987;BME280;10652;50.306;8.570;2023-06-14T09:32:30;97945.84;;;17.91;44.77
20987;BME280;10652;50.306;8.570;2023-06-14T09:36:32;97953.69;;;18.15;44.44
20987;BME280;10652;50.306;8.570;2023-06-14T09:40:34;97943.50;;;18.54;44.30
20987;BME280;10652;50.306;8.570;2023-06-14T09:44:38;97943.38;;;18.66;43.19
20987;BME280;10652;50.306;8.570;2023-06-14T09:48:40;97959.19;;;18.79;43.47
20987;BME280;10652;50.306;8.570;2023-06-14T09:52:49;97947.38;;;18.61;44.19
20987;BME280;10652;50.306;8.570;2023-06-14T09:56:54;97948.00;;;18.96;42.68
20987;BME280;10652;50.306;8.570;2023-06-14T10:00:57;97959.41;;;18.76;43.70
20987;BME280;10652;50.306;8.570;2023-06-14T10:05:07;97947.69;;;18.78;42.94
20987;BME280;10652;50.306;8.570;2023-06-14T10:09:11;97943.06;;;19.23;43.16
20987;BME280;10652;50.306;8.570;2023-06-14T10:13:14;97946.13;;;19.60;41.01
20987;BME280;10652;50.306;8.570;2023-06-14T10:17:43;97945.47;;;19.26;41.76
20987;BME280;10652;50.306;8.570;2023-06-14T10:22:00;97925.84;;;19.27;42.42
20987;BME280;10652;50.306;8.570;2023-06-14T10:26:03;97943.53;;;18.85;42.59
20987;BME280;10652;50.306;8.570;2023-06-14T10:30:07;97942.03;;;19.04;42.29
20987;BME280;10652;50.306;8.570;2023-06-14T10:34:11;97939.44;;;19.24;41.69
20987;BME280;10652;50.306;8.570;2023-06-14T10:38:13;97942.72;;;19.17;42.39
20987;BME280;10652;50.306;8.570;2023-06-14T10:42:16;97949.03;;;19.16;41.74
20987;BME280;10652;50.306;8.570;2023-06-14T10:46:18;97934.63;;;19.18;41.78
20987;BME280;10652;50.306;8.570;2023-06-14T10:50:28;97949.38;;;19.43;41.57
20987;BME280;10652;50.306;8.570;2023-06-14T10:54:35;97933.47;;;19.53;41.69
20987;BME280;10652;50.306;8.570;2023-06-14T10:58:37;97936.16;;;19.83;41.21
20987;BME280;10652;50.306;8.570;2023-06-14T11:02:51;97935.66;;;19.89;41.14
20987;BME280;10652;50.306;8.570;2023-06-14T11:11:30;97931.22;;;19.99;41.20
20987;BME280;10652;50.306;8.570;2023-06-14T11:15:35;97930.59;;;20.66;41.15
20987;BME280;10652;50.306;8.570;2023-06-14T11:19:37;97939.09;;;21.29;38.21
20987;BME280;10652;50.306;8.570;2023-06-14T11:23:39;97941.22;;;21.16;39.06
20987;BME280;10652;50.306;8.570;2023-06-14T11:27:42;97952.00;;;21.62;37.78
20987;BME280;10652;50.306;8.570;2023-06-14T11:31:45;97950.03;;;21.35;38.29
20987;BME280;10652;50.306;8.570;2023-06-14T11:35:47;97958.25;;;20.65;39.51
20987;BME280;10652;50.306;8.570;2023-06-14T11:39:50;97942.72;;;20.40;39.72
20987;BME280;10652;50.306;8.570;2023-06-14T11:43:52;97941.81;;;20.60;39.65
20987;BME280;10652;50.306;8.570;2023-06-14T11:47:56;97939.66;;;20.84;39.14
20987;BME280;10652;50.306;8.570;2023-06-14T11:51:58;97933.72;;;20.71;38.97
20987;BME280;10652;50.306;8.570;2023-06-14T11:56:01;97936.47;;;20.60;40.18
20987;BME280;10652;50.306;8.570;2023-06-14T12:00:04;97940.03;;;20.70;39.94
20987;BME280;10652;50.306;8.570;2023-06-14T12:04:13;97932.78;;;21.11;38.42
20987;BME280;10652;50.306;8.570;2023-06-14T12:08:15;97929.38;;;21.09;38.59
20987;BME280;10652;50.306;8.570;2023-06-14T12:12:22;97934.03;;;21.45;38.35
20987;BME280;10652;50.306;8.570;2023-06-14T12:16:30;97937.41;;;21.47;38.10
20987;BME280;10652;50.306;8.570;2023-06-14T12:20:33;97933.47;;;21.32;38.68
20987;BME280;10652;50.306;8.570;2023-06-14T12:24:37;97935.72;;;21.46;37.97
20987;BME280;10652;50.306;8.570;2023-06-14T12:28:40;97927.13;;;21.99;37.66
20987;BME280;10652;50.306;8.570;2023-06-14T12:32:42;97923.63;;;22.35;36.28
20987;BME280;10652;50.306;8.570;2023-06-14T12:36:46;97942.50;;;21.97;36.40
20987;BME280;10652;50.306;8.570;2023-06-14T12:40:48;97929.91;;;21.79;36.47
20987;BME280;10652;50.306;8.570;2023-06-14T12:44:51;97928.25;;;22.06;36.92
20987;BME280;10652;50.306;8.570;2023-06-14T12:48:53;97930.09;;;22.42;36.47
20987;BME280;10652;50.306;8.570;2023-06-14T12:52:55;97939.19;;;22.22;34.37
20987;BME280;10652;50.306;8.570;2023-06-14T12:56:57;97936.88;;;21.90;35.47
20987;BME280;10652;50.306;8.570;2023-06-14T13:00:59;97929.13;;;21.97;36.91
20987;BME280;10652;50.306;8.570;2023-06-14T13:05:01;97942.59;;;21.58;38.12
20987;BME280;10652;50.306;8.570;2023-06-14T13:09:05;97942.44;;;21.31;38.41
20987;BME280;10652;50.306;8.570;2023-06-14T13:13:07;97950.34;;;21.23;38.34
20987;BME280;10652;50.306;8.570;2023-06-14T13:17:10;97951.19;;;21.14;38.76
20987;BME280;10652;50.306;8.570;2023-06-14T13:21:12;97948.91;;;20.99;38.94
20987;BME280;10652;50.306;8.570;2023-06-14T13:25:14;97947.25;;;20.98;39.49
20987;BME280;10652;50.306;8.570;2023-06-14T13:29:16;97950.19;;;21.15;40.71
20987;BME280;10652;50.306;8.570;2023-06-14T13:33:19;97941.91;;;21.37;38.39
20987;BME280;10652;50.306;8.570;2023-06-14T13:37:21;97941.22;;;21.16;39.17
20987;BME280;10652;50.306;8.570;2023-06-14T13:41:23;97946.97;;;21.21;38.30
20987;BME280;10652;50.306;8.570;2023-06-14T13:45:25;97945.53;;;21.36;38.11
20987;BME280;10652;50.306;8.570;2023-06-14T13:49:27;97928.53;;;21.66;37.09
20987;BME280;10652;50.306;8.570;2023-06-14T13:53:30;97926.38;;;21.79;38.11
20987;BME280;10652;50.306;8.570;2023-06-14T13:57:32;97925.63;;;21.86;38.30
20987;BME280;10652;50.306;8.570;2023-06-14T14:01:34;97933.06;;;21.46;37.57
20987;BME280;10652;50.306;8.570;2023-06-14T14:05:36;97921.09;;;21.50;37.78
20987;BME280;10652;50.306;8.570;2023-06-14T14:09:38;97925.00;;;21.65;36.80
20987;BME280;10652;50.306;8.570;2023-06-14T14:13:41;97922.78;;;21.51;36.99
20987;BME280;10652;50.306;8.570;2023-06-14T14:17:44;97914.75;;;21.51;37.99
20987;BME280;10652;50.306;8.570;2023-06-14T14:21:46;97918.13;;;21.43;38.96
20987;BME280;10652;50.306;8.570;2023-06-14T14:25:48;97922.22;;;21.47;38.01
20987;BME280;10652;50.306;8.570;2023-06-14T14:29:50;97917.66;;;22.14;37.14
20987;BME280;10652;50.306;8.570;2023-06-14T14:33:52;97912.66;;;22.38;35.89
20987;BME280;10652;50.306;8.570;2023-06-14T14:37:55;97906.97;;;22.41;36.54
20987;BME280;10652;50.306;8.570;2023-06-14T14:41:57;97930.25;;;21.94;37.07
20987;BME280;10652;50.306;8.570;2023-06-14T14:45:59;97924.47;;;21.52;37.80
20987;BME280;10652;50.306;8.570;2023-06-14T14:50:01;97931.50;;;21.15;37.86
20987;BME280;10652;50.306;8.570;2023-06-14T14:54:03;97928.69;;;21.07;38.88
20987;BME280;10652;50.306;8.570;2023-06-14T14:58:05;97923.63;;;21.23;38.70
20987;BME280;10652;50.306;8.570;2023-06-14T15:02:08;97922.91;;;21.49;38.49
20987;BME280;10652;50.306;8.570;2023-06-14T15:06:11;97918.50;;;21.77;37.33
20987;BME280;10652;50.306;8.570;2023-06-14T15:10:14;97920.66;;;22.01;37.64
20987;BME280;10652;50.306;8.570;2023-06-14T15:14:16;97926.06;;;21.91;38.87
20987;BME280;10652;50.306;8.570;2023-06-14T15:18:18;97929.81;;;21.99;38.26
20987;BME280;10652;50.306;8.570;2023-06-14T15:22:22;97912.25;;;21.86;37.77
20987;BME280;10652;50.306;8.570;2023-06-14T15:26:24;97922.41;;;21.83;38.43
20987;BME280;10652;50.306;8.570;2023-06-14T15:30:27;97917.41;;;21.70;38.86
20987;BME280;10652;50.306;8.570;2023-06-14T15:34:29;97919.25;;;21.60;37.78
20987;BME280;10652;50.306;8.570;2023-06-14T15:38:31;97922.75;;;21.41;38.82
20987;BME280;10652;50.306;8.570;2023-06-14T15:42:34;97925.56;;;21.40;37.99
20987;BME280;10652;50.306;8.570;2023-06-14T15:46:36;97922.22;;;21.38;38.13
20987;BME280;10652;50.306;8.570;2023-06-14T15:50:38;97916.31;;;21.15;38.47
20987;BME280;10652;50.306;8.570;2023-06-14T15:54:40;97916.19;;;21.17;38.50
20987;BME280;10652;50.306;8.570;2023-06-14T15:58:42;97922.22;;;21.19;38.96
20987;BME280;10652;50.306;8.570;2023-06-14T16:02:44;97913.88;;;21.41;38.48
20987;BME280;10652;50.306;8.570;2023-06-14T16:06:47;97903.84;;;21.81;38.01
20987;BME280;10652;50.306;8.570;2023-06-14T16:10:49;97895.16;;;22.07;37.07
20987;BME280;10652;50.306;8.570;2023-06-14T16:14:53;97901.72;;;22.22;36.64
20987;BME280;10652;50.306;8.570;2023-06-14T16:18:56;97907.75;;;21.87;37.50
20987;BME280;10652;50.306;8.570;2023-06-14T16:22:58;97907.41;;;21.53;38.06
20987;BME280;10652;50.306;8.570;2023-06-14T16:27:00;97911.53;;;21.19;38.30
20987;BME280;10652;50.306;8.570;2023-06-14T16:31:04;97905.06;;;20.92;39.02
20987;BME280;10652;50.306;8.570;2023-06-14T16:35:06;97907.19;;;20.98;38.98
20987;BME280;10652;50.306;8.570;2023-06-14T16:39:08;97906.47;;;21.06;38.89
20987;BME280;10652;50.306;8.570;2023-06-14T16:43:10;97913.50;;;21.07;38.74
20987;BME280;10652;50.306;8.570;2023-06-14T16:47:13;97915.75;;;21.12;37.93
20987;BME280;10652;50.306;8.570;2023-06-14T16:51:15;97916.31;;;21.15;38.60
20987;BME280;10652;50.306;8.570;2023-06-14T16:55:17;97917.16;;;21.16;37.41
20987;BME280;10652;50.306;8.570;2023-06-14T16:59:19;97914.38;;;21.08;38.80
20987;BME280;10652;50.306;8.570;2023-06-14T17:03:21;97913.50;;;21.17;39.46
20987;BME280;10652;50.306;8.570;2023-06-14T17:07:23;97923.19;;;21.18;38.73
20987;BME280;10652;50.306;8.570;2023-06-14T17:11:26;97921.78;;;20.94;38.54
20987;BME280;10652;50.306;8.570;2023-06-14T17:15:28;97927.75;;;20.68;38.78
20987;BME280;10652;50.306;8.570;2023-06-14T17:19:30;97934.06;;;20.47;39.26
20987;BME280;10652;50.306;8.570;2023-06-14T17:23:32;97935.56;;;20.40;39.70
20987;BME280;10652;50.306;8.570;2023-06-14T17:27:35;97945.41;;;20.30;40.00
20987;BME280;10652;50.306;8.570;2023-06-14T17:31:37;97938.50;;;20.28;39.91
20987;BME280;10652;50.306;8.570;2023-06-14T17:35:39;97944.25;;;20.33;39.95
20987;BME280;10652;50.306;8.570;2023-06-14T17:39:41;97951.44;;;20.32;39.95
20987;BME280;10652;50.306;8.570;2023-06-14T17:43:44;97949.00;;;20.20;39.81
20987;BME280;10652;50.306;8.570;2023-06-14T17:47:46;97951.50;;;20.11;39.85
20987;BME280;10652;50.306;8.570;2023-06-14T17:51:49;97955.41;;;20.07;39.81
20987;BME280;10652;50.306;8.570;2023-06-14T17:55:51;97946.34;;;19.99;39.65
20987;BME280;10652;50.306;8.570;2023-06-14T17:59:53;97954.75;;;19.94;40.11
20987;BME280;10652;50.306;8.570;2023-06-14T18:03:58;97958.50;;;19.92;40.51
20987;BME280;10652;50.306;8.570;2023-06-14T18:08:00;97962.81;;;19.83;40.31
20987;BME280;10652;50.306;8.570;2023-06-14T18:12:03;97969.63;;;19.76;40.09
20987;BME280;10652;50.306;8.570;2023-06-14T18:16:05;97972.28;;;19.66;40.35
20987;BME280;10652;50.306;8.570;2023-06-14T18:20:07;97975.56;;;19.59;40.76
20987;BME280;10652;50.306;8.570;2023-06-14T18:24:10;97972.84;;;19.49;40.84
20987;BME280;10652;50.306;8.570;2023-06-14T18:28:13;97980.91;;;19.38;40.99
20987;BME280;10652;50.306;8.570;2023-06-14T18:32:15;97981.78;;;19.27;41.54
20987;BME280;10652;50.306;8.570;2023-06-14T18:36:17;97984.75;;;19.13;41.73
20987;BME280;10652;50.306;8.570;2023-06-14T18:40:21;97985.00;;;18.99;42.19
20987;BME280;10652;50.306;8.570;2023-06-14T18:44:23;97985.16;;;18.86;42.67
20987;BME280;10652;50.306;8.570;2023-06-14T18:48:25;97993.78;;;18.79;42.87
20987;BME280;10652;50.306;8.570;2023-06-14T18:52:27;97994.78;;;18.67;43.28
20987;BME280;10652;50.306;8.570;2023-06-14T18:56:29;98001.22;;;18.53;43.36
20987;BME280;10652;50.306;8.570;2023-06-14T19:00:31;98001.47;;;18.39;44.02
20987;BME280;10652;50.306;8.570;2023-06-14T19:04:34;98001.91;;;18.22;44.41
20987;BME280;10652;50.306;8.570;2023-06-14T19:08:37;98009.03;;;18.10;44.58
20987;BME280;10652;50.306;8.570;2023-06-14T19:12:40;98007.34;;;17.98;45.00
20987;BME280;10652;50.306;8.570;2023-06-14T19:16:42;98013.72;;;17.84;45.72
20987;BME280;10652;50.306;8.570;2023-06-14T19:20:44;98010.69;;;17.67;46.16
20987;BME280;10652;50.306;8.570;2023-06-14T19:24:46;98015.44;;;17.50;46.31
20987;BME280;10652;50.306;8.570;2023-06-14T19:28:48;98019.00;;;17.38;46.66
20987;BME280;10652;50.306;8.570;2023-06-14T19:32:50;98031.50;;;17.25;46.85
20987;BME280;10652;50.306;8.570;2023-06-14T19:36:53;98033.38;;;17.12;47.09
20987;BME280;10652;50.306;8.570;2023-06-14T19:40:55;98042.22;;;17.00;47.42
20987;BME280;10652;50.306;8.570;2023-06-14T19:44:57;98040.78;;;16.83;47.84
20987;BME280;10652;50.306;8.570;2023-06-14T19:48:59;98061.84;;;16.74;48.19
20987;BME280;10652;50.306;8.570;2023-06-14T19:53:02;98060.16;;;16.60;48.56
20987;BME280;10652;50.306;8.570;2023-06-14T19:57:04;98063.75;;;16.46;49.20
20987;BME280;10652;50.306;8.570;2023-06-14T20:01:07;98078.84;;;16.33;49.50
20987;BME280;10652;50.306;8.570;2023-06-14T20:05:09;98077.16;;;16.19;49.94
20987;BME280;10652;50.306;8.570;2023-06-14T20:09:11;98082.22;;;16.10;50.82
20987;BME280;10652;50.306;8.570;2023-06-14T20:13:15;98080.53;;;15.96;51.10
20987;BME280;10652;50.306;8.570;2023-06-14T20:17:17;98087.53;;;15.85;51.92
20987;BME280;10652;50.306;8.570;2023-06-14T20:21:19;98093.53;;;15.74;52.40
20987;BME280;10652;50.306;8.570;2023-06-14T20:25:22;98094.69;;;15.70;52.71
20987;BME280;10652;50.306;8.570;2023-06-14T20:29:24;98098.38;;;15.67;52.84
20987;BME280;10652;50.306;8.570;2023-06-14T20:33:26;98097.84;;;15.62;53.45
20987;BME280;10652;50.306;8.570;2023-06-14T20:37:28;98100.53;;;15.48;53.79
20987;BME280;10652;50.306;8.570;2023-06-14T20:41:30;98098.13;;;15.31;55.20
20987;BME280;10652;50.306;8.570;2023-06-14T20:45:32;98102.72;;;15.15;55.67
20987;BME280;10652;50.306;8.570;2023-06-14T20:49:35;98101.63;;;15.05;56.23
20987;BME280;10652;50.306;8.570;2023-06-14T20:53:37;98114.13;;;14.88;56.62
20987;BME280;10652;50.306;8.570;2023-06-14T20:57:39;98111.50;;;14.74;57.19
20987;BME280;10652;50.306;8.570;2023-06-14T21:01:41;98112.69;;;14.55;58.02
20987;BME280;10652;50.306;8.570;2023-06-14T21:05:44;98107.97;;;14.45;58.18
20987;BME280;10652;50.306;8.570;2023-06-14T21:09:47;98108.66;;;14.35;58.92
20987;BME280;10652;50.306;8.570;2023-06-14T21:13:51;98116.09;;;14.28;59.23
20987;BME280;10652;50.306;8.570;2023-06-14T21:17:54;98118.25;;;14.22;59.51
20987;BME280;10652;50.306;8.570;2023-06-14T21:21:57;98116.38;;;14.10;60.29
20987;BME280;10652;50.306;8.570;2023-06-14T21:25:59;98117.13;;;14.12;60.80
20987;BME280;10652;50.306;8.570;2023-06-14T21:30:01;98113.53;;;14.13;60.83
20987;BME280;10652;50.306;8.570;2023-06-14T21:34:03;98112.13;;;14.07;60.83
20987;BME280;10652;50.306;8.570;2023-06-14T21:38:05;98117.84;;;13.99;61.16